Time;durP1;ratioP1;P1;durP2;ratioP2;P2;SDS_P1;SDS_P2;PMS_P1;PMS_P2;Temp;Humidity;BMP_temperature;BMP_pressure;BME280_temperature;BME280_humidity;BME280_pressure;Samples;Min_cycle;Max_cycle;Signal;HPM_P1;HPM_P2
2022/12/10 00:03:46;;;;;;;10.90;6.05;;;;;;;;;;12841243;19;20444;-65
2022/12/10 00:08:05;;;;;;;10.05;5.63;;;;;;;;;;12845926;19;20295;-63
2022/12/10 00:12:21;;;;;;;12.38;6.13;;;;;;;;;;12843989;19;20349;-64
2022/12/10 00:16:39;;;;;;;15.13;8.30;;;;;;;;;;12844795;19;20475;-65
2022/12/10 00:20:56;;;;;;;10.60;5.03;;;;;;;;;;12846393;19;20018;-65
2022/12/10 00:25:13;;;;;;;10.35;5.50;;;;;;;;;;12844645;19;20011;-63
2022/12/10 00:29:30;;;;;;;9.38;4.82;;;;;;;;;;12845306;19;20426;-64
2022/12/10 00:33:48;;;;;;;9.85;5.40;;;;;;;;;;12844360;19;20623;-63
2022/12/10 00:38:05;;;;;;;8.88;5.32;;;;;;;;;;12843120;19;20006;-64
2022/12/10 00:42:22;;;;;;;7.72;5.05;;;;;;;;;;12844505;19;20437;-65
2022/12/10 00:46:39;;;;;;;9.23;4.88;;;;;;;;;;12844703;19;20497;-65
2022/12/10 00:51:04;;;;;;;9.43;5.93;;;;;;;;;;12843700;19;20462;-65
2022/12/10 00:55:21;;;;;;;10.18;5.65;;;;;;;;;;12841542;19;20485;-64
2022/12/10 00:59:38;;;;;;;12.43;6.18;;;;;;;;;;12843686;19;20007;-64
2022/12/10 01:03:58;;;;;;;6.80;4.30;;;;;;;;;;12844553;19;20038;-64
2022/12/10 01:08:16;;;;;;;8.05;4.88;;;;;;;;;;12842392;19;20432;-64
2022/12/10 01:12:33;;;;;;;5.60;3.88;;;;;;;;;;12843079;19;20477;-64
2022/12/10 01:16:54;;;;;;;5.95;3.35;;;;;;;;;;12842005;19;20451;-64
2022/12/10 01:21:15;;;;;;;6.38;3.53;;;;;;;;;;12841345;19;20321;-64
2022/12/10 01:25:32;;;;;;;5.25;3.28;;;;;;;;;;12841851;19;20444;-64
2022/12/10 01:29:49;;;;;;;5.38;3.17;;;;;;;;;;12842458;19;20051;-64
2022/12/10 01:34:11;;;;;;;20.88;7.53;;;;;;;;;;12839973;19;20469;-65
2022/12/10 01:38:28;;;;;;;12.95;4.13;;;;;;;;;;12839329;19;20515;-64
2022/12/10 01:42:45;;;;;;;5.20;3.30;;;;;;;;;;12841338;19;20046;-64
2022/12/10 01:47:02;;;;;;;4.65;2.97;;;;;;;;;;12838327;19;20441;-66
2022/12/10 01:51:20;;;;;;;4.22;2.83;;;;;;;;;;12840067;19;20048;-64
2022/12/10 01:55:45;;;;;;;5.70;2.50;;;;;;;;;;12840546;19;20007;-64
2022/12/10 02:00:06;;;;;;;5.13;2.80;;;;;;;;;;12837835;19;20497;-64
2022/12/10 02:04:37;;;;;;;4.25;2.97;;;;;;;;;;12839626;19;20469;-66
2022/12/10 02:08:59;;;;;;;5.70;4.28;;;;;;;;;;12840206;19;20331;-64
2022/12/10 02:14:03;;;;;;;8.57;6.03;;;;;;;;;;12839004;19;20014;-64
2022/12/10 02:18:48;;;;;;;17.98;5.00;;;;;;;;;;12837273;19;20104;-64
2022/12/10 02:23:16;;;;;;;12.68;5.05;;;;;;;;;;12835626;19;20336;-63
2022/12/10 02:28:04;;;;;;;14.52;5.20;;;;;;;;;;12835559;19;20363;-63
2022/12/10 02:32:29;;;;;;;5.28;3.92;;;;;;;;;;12836415;19;20046;-64
2022/12/10 02:36:51;;;;;;;4.45;2.83;;;;;;;;;;12838192;19;20011;-64
2022/12/10 02:41:16;;;;;;;4.43;2.45;;;;;;;;;;12835874;19;20445;-66
2022/12/10 02:45:34;;;;;;;6.35;3.17;;;;;;;;;;12837934;19;20538;-65
2022/12/10 02:49:55;;;;;;;4.20;3.35;;;;;;;;;;12836236;19;20494;-64
2022/12/10 02:54:45;;;;;;;4.63;2.60;;;;;;;;;;12836666;19;20080;-64
2022/12/10 02:59:52;;;;;;;14.10;4.78;;;;;;;;;;12837345;19;20339;-65
2022/12/10 03:04:57;;;;;;;5.25;2.80;;;;;;;;;;12836440;19;20489;-64
2022/12/10 03:09:26;;;;;;;3.65;2.72;;;;;;;;;;12836934;19;20429;-63
2022/12/10 03:13:58;;;;;;;3.80;2.40;;;;;;;;;;12836634;19;20438;-64
2022/12/10 03:18:19;;;;;;;19.98;4.80;;;;;;;;;;12832782;19;20473;-64
2022/12/10 03:22:40;;;;;;;7.80;2.92;;;;;;;;;;12836184;19;20331;-65
2022/12/10 03:26:58;;;;;;;8.38;3.60;;;;;;;;;;12837912;19;20464;-63
2022/12/10 03:31:16;;;;;;;3.88;2.40;;;;;;;;;;12835707;19;20441;-63
2022/12/10 03:35:33;;;;;;;;;;;;;;;;;;12837503;19;20429;-65
2022/12/10 03:39:51;;;;;;;9.10;3.67;;;;;;;;;;12842421;19;20235;-65
2022/12/10 03:44:08;;;;;;;3.30;2.07;;;;;;;;;;12845990;19;20359;-68
2022/12/10 03:48:25;;;;;;;5.10;2.65;;;;;;;;;;12850651;19;20315;-64
2022/12/10 03:52:42;;;;;;;3.75;2.80;;;;;;;;;;12849085;19;20025;-64
2022/12/10 03:56:59;;;;;;;4.47;2.67;;;;;;;;;;12847721;19;20386;-64
2022/12/10 04:01:16;;;;;;;4.72;2.72;;;;;;;;;;12847667;19;20445;-64
2022/12/10 04:05:33;;;;;;;4.93;2.67;;;;;;;;;;12848251;19;20018;-64
2022/12/10 04:09:52;;;;;;;5.38;2.90;;;;;;;;;;12848433;19;20316;-64
2022/12/10 04:18:47;;;;;;;3.65;2.38;;;;;;;;;;12848081;19;20418;-64
2022/12/10 04:27:40;;;;;;;5.13;2.88;;;;;;;;;;12847563;19;20319;-64
2022/12/10 04:31:58;;;;;;;3.45;2.00;;;;;;;;;;12845363;19;20394;-63
2022/12/10 04:36:15;;;;;;;3.28;2.78;;;;;;;;;;12846158;19;20457;-64
2022/12/10 04:40:32;;;;;;;3.47;2.30;;;;;;;;;;12845525;19;20006;-65
2022/12/10 04:44:49;;;;;;;5.63;3.10;;;;;;;;;;12845914;19;20010;-64
2022/12/10 04:49:07;;;;;;;4.10;2.63;;;;;;;;;;12844434;19;20627;-64
2022/12/10 04:53:24;;;;;;;4.88;2.85;;;;;;;;;;12846062;19;20441;-65
2022/12/10 04:57:41;;;;;;;3.65;2.72;;;;;;;;;;12845597;19;20426;-64
2022/12/10 05:01:58;;;;;;;4.68;2.88;;;;;;;;;;12846122;19;20432;-65
2022/12/10 05:06:17;;;;;;;4.30;2.97;;;;;;;;;;12842483;19;20320;-64
2022/12/10 05:10:35;;;;;;;3.67;3.10;;;;;;;;;;12844998;19;20623;-64
2022/12/10 05:14:52;;;;;;;4.68;2.58;;;;;;;;;;12844696;19;20453;-63
2022/12/10 05:19:10;;;;;;;3.67;2.88;;;;;;;;;;12843199;19;20014;-65
2022/12/10 05:23:27;;;;;;;4.78;2.80;;;;;;;;;;12844547;19;20553;-65
2022/12/10 05:27:44;;;;;;;4.57;3.15;;;;;;;;;;12844166;19;20327;-64
2022/12/10 05:32:03;;;;;;;4.18;3.17;;;;;;;;;;12845160;19;20319;-65
2022/12/10 05:36:27;;;;;;;4.82;3.55;;;;;;;;;;12841486;19;20478;-64
2022/12/10 05:40:44;;;;;;;4.20;3.60;;;;;;;;;;12843297;19;20478;-64
2022/12/10 05:45:01;;;;;;;4.45;3.28;;;;;;;;;;12843036;19;20444;-64
2022/12/10 05:49:19;;;;;;;4.28;2.92;;;;;;;;;;12841451;19;20006;-65
2022/12/10 05:53:37;;;;;;;5.93;3.72;;;;;;;;;;12843454;19;20317;-65
2022/12/10 05:57:53;;;;;;;5.67;3.43;;;;;;;;;;12841768;19;20403;-66
2022/12/10 06:02:11;;;;;;;5.13;3.35;;;;;;;;;;12838192;19;20303;-63
2022/12/10 06:06:31;;;;;;;4.40;3.03;;;;;;;;;;12841837;19;20022;-63
2022/12/10 06:10:50;;;;;;;7.60;4.75;;;;;;;;;;12843372;19;20340;-64
2022/12/10 06:15:07;;;;;;;6.72;3.78;;;;;;;;;;12839571;19;20318;-64
2022/12/10 06:19:24;;;;;;;4.75;2.95;;;;;;;;;;12841063;19;20422;-65
2022/12/10 06:23:42;;;;;;;2.92;2.08;;;;;;;;;;12840623;19;20018;-65
2022/12/10 06:27:59;;;;;;;5.13;2.87;;;;;;;;;;12841134;19;20433;-65
2022/12/10 06:32:16;;;;;;;4.65;3.20;;;;;;;;;;12840814;19;20382;-64
2022/12/10 06:36:33;;;;;;;4.45;3.53;;;;;;;;;;12840073;19;20430;-65
2022/12/10 06:40:50;;;;;;;5.53;3.55;;;;;;;;;;12838752;19;20029;-64
2022/12/10 06:45:08;;;;;;;5.10;3.13;;;;;;;;;;12838956;19;20037;-64
2022/12/10 06:49:25;;;;;;;9.60;4.40;;;;;;;;;;12837372;19;20370;-66
2022/12/10 06:53:43;;;;;;;9.57;4.25;;;;;;;;;;12660477;19;20450;-65
2022/12/10 06:58:00;;;;;;;4.90;3.00;;;;;;;;;;12733893;19;20465;-65
2022/12/10 07:02:17;;;;;;;6.93;3.33;;;;;;;;;;12835902;19;20014;-64
2022/12/10 07:06:34;;;;;;;3.55;2.55;;;;;;;;;;12837889;19;20489;-64
2022/12/10 07:10:52;;;;;;;3.95;2.13;;;;;;;;;;12837970;19;20003;-63
2022/12/10 07:15:09;;;;;;;3.10;2.25;;;;;;;;;;12835177;19;20315;-65
2022/12/10 07:19:28;;;;;;;4.03;1.90;;;;;;;;;;12836768;19;20434;-64
2022/12/10 07:23:45;;;;;;;3.50;2.58;;;;;;;;;;12813630;19;20349;-64
2022/12/10 07:28:14;;;;;;;2.88;2.15;;;;;;;;;;12833500;19;20323;-65
2022/12/10 07:32:32;;;;;;;3.28;2.50;;;;;;;;;;12833791;19;20502;-66
2022/12/10 07:36:49;;;;;;;3.28;2.47;;;;;;;;;;12837283;19;20448;-64
2022/12/10 07:41:12;;;;;;;4.00;2.70;;;;;;;;;;12833135;19;20425;-64
2022/12/10 07:45:35;;;;;;;3.45;2.50;;;;;;;;;;12835812;19;20313;-64
2022/12/10 07:49:53;;;;;;;4.85;3.15;;;;;;;;;;12833537;19;20433;-64
2022/12/10 07:54:10;;;;;;;9.88;5.40;;;;;;;;;;12834668;19;20014;-64
2022/12/10 07:58:27;;;;;;;9.13;5.45;;;;;;;;;;12832479;19;20457;-64
2022/12/10 08:02:44;;;;;;;6.97;3.75;;;;;;;;;;12836030;19;20422;-65
2022/12/10 08:07:01;;;;;;;5.85;4.05;;;;;;;;;;12832621;19;20386;-70
2022/12/10 08:11:21;;;;;;;8.45;4.20;;;;;;;;;;12834165;19;20313;-65
2022/12/10 08:15:38;;;;;;;6.13;3.50;;;;;;;;;;12832533;19;20437;-64
2022/12/10 08:19:55;;;;;;;5.85;4.03;;;;;;;;;;12831239;19;20357;-65
2022/12/10 08:24:12;;;;;;;4.13;3.38;;;;;;;;;;12837762;19;20326;-64
2022/12/10 08:28:29;;;;;;;8.70;4.07;;;;;;;;;;12844918;19;20717;-64
2022/12/10 08:32:46;;;;;;;4.75;2.58;;;;;;;;;;12846616;19;20438;-64
2022/12/10 08:37:03;;;;;;;6.25;3.63;;;;;;;;;;12845208;19;20437;-64
2022/12/10 08:41:27;;;;;;;5.22;3.38;;;;;;;;;;12341566;19;10001055;-64
2022/12/10 08:45:45;;;;;;;7.38;5.03;;;;;;;;;;12846110;19;20054;-64
2022/12/10 08:50:03;;;;;;;8.18;5.13;;;;;;;;;;12845457;19;20426;-65
2022/12/10 08:54:20;;;;;;;19.15;9.50;;;;;;;;;;12846070;19;20489;-65
2022/12/10 08:58:38;;;;;;;12.90;7.60;;;;;;;;;;12848129;19;20006;-64
2022/12/10 09:02:55;;;;;;;12.07;7.38;;;;;;;;;;12847320;19;20006;-64
2022/12/10 09:07:12;;;;;;;10.40;5.88;;;;;;;;;;12841731;19;20350;-64
2022/12/10 09:11:33;;;;;;;21.73;10.13;;;;;;;;;;12845053;19;20426;-65
2022/12/10 09:15:52;;;;;;;20.85;8.63;;;;;;;;;;12844353;19;20635;-64
2022/12/10 09:20:09;;;;;;;16.13;7.85;;;;;;;;;;12839692;19;20356;-64
2022/12/10 09:24:27;;;;;;;21.15;9.15;;;;;;;;;;12842882;19;20014;-64
2022/12/10 09:28:45;;;;;;;19.73;7.60;;;;;;;;;;12843140;19;20430;-65
2022/12/10 09:33:03;;;;;;;;;;;;;;;;;;12842741;19;20311;-65
2022/12/10 09:37:20;;;;;;;10.10;6.40;;;;;;;;;;12842409;19;20315;-65
2022/12/10 09:42:08;;;;;;;13.32;6.50;;;;;;;;;;12842015;19;20499;-65
2022/12/10 09:46:48;;;;;;;12.15;7.35;;;;;;;;;;12840993;19;20535;-64
2022/12/10 09:51:18;;;;;;;16.10;7.90;;;;;;;;;;12841415;19;20014;-65
2022/12/10 09:55:42;;;;;;;13.93;7.53;;;;;;;;;;12839823;19;20425;-64
2022/12/10 10:00:18;;;;;;;17.92;9.65;;;;;;;;;;12841855;19;20457;-65
2022/12/10 10:04:35;;;;;;;19.40;9.43;;;;;;;;;;12839788;19;20328;-65
2022/12/10 10:08:57;;;;;;;17.05;9.10;;;;;;;;;;12841145;19;20458;-64
2022/12/10 10:13:41;;;;;;;15.57;7.55;;;;;;;;;;12837810;19;20018;-63
2022/12/10 10:18:26;;;;;;;18.23;9.57;;;;;;;;;;12838225;19;20319;-65
2022/12/10 10:22:43;;;;;;;19.60;9.52;;;;;;;;;;12838412;19;20003;-63
2022/12/10 10:27:20;;;;;;;18.02;10.40;;;;;;;;;;12840412;19;20018;-65
2022/12/10 10:31:42;;;;;;;16.95;9.10;;;;;;;;;;12835258;19;20433;-65
2022/12/10 10:35:59;;;;;;;28.95;16.27;;;;;;;;;;12837979;19;20378;-65
2022/12/10 10:40:42;;;;;;;37.20;22.85;;;;;;;;;;12837519;19;22555;-64
2022/12/10 10:44:59;;;;;;;48.42;22.95;;;;;;;;;;12837244;19;20438;-65
2022/12/10 10:49:32;;;;;;;25.30;13.90;;;;;;;;;;12836752;19;20360;-64
2022/12/10 10:53:56;;;;;;;28.52;16.63;;;;;;;;;;12838547;19;20025;-66
2022/12/10 10:58:21;;;;;;;23.60;12.50;;;;;;;;;;12837236;19;20006;-65
2022/12/10 11:02:41;;;;;;;54.45;22.02;;;;;;;;;;12835928;19;20397;-64
2022/12/10 11:07:04;;;;;;;34.47;15.15;;;;;;;;;;12836493;19;20031;-65
2022/12/10 11:11:41;;;;;;;29.13;13.90;;;;;;;;;;12837433;19;20379;-65
2022/12/10 11:16:24;;;;;;;29.45;14.05;;;;;;;;;;12836266;19;20481;-65
2022/12/10 11:21:02;;;;;;;21.77;11.23;;;;;;;;;;12835961;19;20430;-64
2022/12/10 11:25:42;;;;;;;30.83;15.63;;;;;;;;;;12836668;19;20496;-66
2022/12/10 11:30:12;;;;;;;23.38;12.75;;;;;;;;;;12835541;19;20434;-64
2022/12/10 11:35:01;;;;;;;24.15;13.23;;;;;;;;;;12834281;19;20426;-64
2022/12/10 11:39:40;;;;;;;;;;;;;;;;;;12836551;19;20458;-64
2022/12/10 11:44:27;;;;;;;24.02;11.18;;;;;;;;;;12834473;19;20319;-65
2022/12/10 11:49:07;;;;;;;33.90;17.58;;;;;;;;;;12835776;19;20347;-64
2022/12/10 11:53:39;;;;;;;31.30;16.95;;;;;;;;;;12831839;19;20380;-66
2022/12/10 11:58:28;;;;;;;63.97;32.72;;;;;;;;;;12834231;19;20465;-64
2022/12/10 12:02:54;;;;;;;39.42;14.75;;;;;;;;;;12846281;19;20014;-64
2022/12/10 12:08:01;;;;;;;38.70;14.55;;;;;;;;;;12844677;19;20465;-65
2022/12/10 12:12:47;;;;;;;32.65;13.15;;;;;;;;;;12846175;19;20028;-64
2022/12/10 12:17:26;;;;;;;35.53;16.90;;;;;;;;;;12845534;19;20038;-65
2022/12/10 12:21:47;;;;;;;23.50;11.02;;;;;;;;;;12845255;19;20015;-63
2022/12/10 12:26:14;;;;;;;27.30;13.15;;;;;;;;;;12844764;19;20046;-65
2022/12/10 12:30:35;;;;;;;27.33;15.30;;;;;;;;;;12843624;19;20308;-65
2022/12/10 12:35:17;;;;;;;33.75;14.95;;;;;;;;;;12844157;19;20336;-63
2022/12/10 12:40:13;;;;;;;35.97;13.25;;;;;;;;;;12845081;19;20335;-64
2022/12/10 12:44:48;;;;;;;24.13;10.50;;;;;;;;;;12843183;19;20319;-65
2022/12/10 12:49:37;;;;;;;26.35;12.32;;;;;;;;;;12842052;19;20433;-65
2022/12/10 12:53:55;;;;;;;28.85;13.75;;;;;;;;;;12843536;19;20015;-64
2022/12/10 12:58:29;;;;;;;23.83;12.02;;;;;;;;;;12841788;19;20444;-64
2022/12/10 13:03:05;;;;;;;23.10;12.00;;;;;;;;;;12844041;19;20616;-63
2022/12/10 13:07:23;;;;;;;21.58;10.63;;;;;;;;;;12810184;19;20444;-65
2022/12/10 13:12:06;;;;;;;76.25;34.80;;;;;;;;;;12843422;19;20318;-64
2022/12/10 13:16:40;;;;;;;47.83;23.92;;;;;;;;;;12842404;19;20708;-64
2022/12/10 13:21:29;;;;;;;26.50;11.63;;;;;;;;;;12844463;19;20438;-64
2022/12/10 13:25:57;;;;;;;;;;;;;;;;;;12844369;19;20437;-63
2022/12/10 13:30:37;;;;;;;25.35;14.57;;;;;;;;;;12819333;19;20287;-65
2022/12/10 13:35:09;;;;;;;26.38;13.95;;;;;;;;;;12841209;19;20326;-65
2022/12/10 13:39:29;;;;;;;35.17;19.33;;;;;;;;;;12841594;19;20338;-64
2022/12/10 13:48:37;;;;;;;19.02;9.38;;;;;;;;;;12824698;19;20018;-63
2022/12/10 13:53:42;;;;;;;20.25;12.50;;;;;;;;;;12839941;19;20433;-63
2022/12/10 13:58:05;;;;;;;34.90;17.45;;;;;;;;;;12842175;19;20274;-65
2022/12/10 14:03:01;;;;;;;33.95;15.73;;;;;;;;;;12838995;19;20460;-64
2022/12/10 14:07:20;;;;;;;22.73;12.18;;;;;;;;;;12842264;19;20021;-64
2022/12/10 14:11:46;;;;;;;48.33;20.02;;;;;;;;;;12840918;19;20042;-64
2022/12/10 14:16:09;;;;;;;35.33;18.85;;;;;;;;;;12839414;19;20414;-69
2022/12/10 14:20:32;;;;;;;27.85;13.95;;;;;;;;;;12837966;19;20462;-64
2022/12/10 14:24:50;;;;;;;22.83;11.45;;;;;;;;;;12837659;19;20010;-63
2022/12/10 14:29:07;;;;;;;21.30;9.80;;;;;;;;;;12839301;19;20456;-64
2022/12/10 14:33:26;;;;;;;20.45;9.77;;;;;;;;;;12839025;19;20513;-64
2022/12/10 14:37:46;;;;;;;21.05;11.63;;;;;;;;;;12837868;19;20385;-64
2022/12/10 14:42:05;;;;;;;26.33;13.13;;;;;;;;;;12835925;19;20434;-65
2022/12/10 14:46:30;;;;;;;38.00;16.23;;;;;;;;;;12838606;19;20294;-63
2022/12/10 14:50:47;;;;;;;29.58;15.23;;;;;;;;;;12837712;19;20010;-63
2022/12/10 14:55:05;;;;;;;23.92;13.65;;;;;;;;;;12838637;19;20330;-65
2022/12/10 14:59:38;;;;;;;17.75;10.95;;;;;;;;;;12835781;19;20297;-64
2022/12/10 15:04:00;;;;;;;29.33;14.65;;;;;;;;;;12839509;19;20430;-63
2022/12/10 15:08:19;;;;;;;24.88;11.30;;;;;;;;;;12838362;19;20326;-64
2022/12/10 15:12:47;;;;;;;33.17;13.15;;;;;;;;;;12836730;19;20437;-65
2022/12/10 15:17:25;;;;;;;27.30;12.70;;;;;;;;;;12834822;19;20320;-64
2022/12/10 15:21:45;;;;;;;30.58;14.55;;;;;;;;;;12836353;19;20422;-63
2022/12/10 15:26:11;;;;;;;25.15;11.85;;;;;;;;;;12837741;19;20481;-64
2022/12/10 15:30:37;;;;;;;18.45;10.52;;;;;;;;;;12836716;19;20442;-63
2022/12/10 15:35:06;;;;;;;16.58;8.30;;;;;;;;;;12846043;19;20462;-63
2022/12/10 15:40:10;;;;;;;14.43;6.88;;;;;;;;;;12846451;19;20477;-63
2022/12/10 15:44:31;;;;;;;21.80;10.73;;;;;;;;;;12846245;19;20033;-63
2022/12/10 15:48:48;;;;;;;16.55;9.20;;;;;;;;;;12762038;19;20333;-63
2022/12/10 15:53:11;;;;;;;21.45;10.82;;;;;;;;;;12846791;19;20086;-64
2022/12/10 15:57:32;;;;;;;19.55;9.93;;;;;;;;;;12847078;19;20434;-64
2022/12/10 16:01:50;;;;;;;20.67;9.52;;;;;;;;;;12847269;19;20027;-63
2022/12/10 16:06:07;;;;;;;27.30;13.48;;;;;;;;;;12845202;19;20322;-65
2022/12/10 16:10:31;;;;;;;19.17;10.43;;;;;;;;;;12846965;19;20332;-66
2022/12/10 16:14:59;;;;;;;13.35;7.15;;;;;;;;;;12848257;19;20030;-64
2022/12/10 16:19:16;;;;;;;15.38;8.38;;;;;;;;;;12845496;19;20458;-64
2022/12/10 16:23:34;;;;;;;13.68;8.60;;;;;;;;;;12846765;19;20014;-65
2022/12/10 16:27:52;;;;;;;26.25;11.75;;;;;;;;;;12846469;19;20810;-63
2022/12/10 16:32:11;;;;;;;26.38;12.32;;;;;;;;;;12843188;19;20015;-64
2022/12/10 16:36:28;;;;;;;31.95;15.07;;;;;;;;;;12846038;19;20006;-64
2022/12/10 16:40:46;;;;;;;29.20;16.15;;;;;;;;;;12844447;19;20014;-63
2022/12/10 16:45:14;;;;;;;34.90;16.95;;;;;;;;;;12843889;19;20311;-64
2022/12/10 16:49:31;;;;;;;44.22;18.63;;;;;;;;;;12845502;19;20360;-65
2022/12/10 16:53:48;;;;;;;22.58;12.32;;;;;;;;;;12844739;19;20430;-63
2022/12/10 16:58:11;;;;;;;48.88;22.02;;;;;;;;;;12842551;19;20343;-64
2022/12/10 17:02:28;;;;;;;27.15;14.00;;;;;;;;;;12815760;19;20364;-63
2022/12/10 17:06:45;;;;;;;12.80;7.63;;;;;;;;;;12845835;19;20303;-64
2022/12/10 17:11:49;;;;;;;14.97;8.30;;;;;;;;;;12844152;19;20314;-64
2022/12/10 17:16:24;;;;;;;15.73;8.70;;;;;;;;;;12782682;19;20472;-64
2022/12/10 17:20:42;;;;;;;17.92;8.77;;;;;;;;;;12782242;19;20425;-65
2022/12/10 17:25:07;;;;;;;15.40;7.88;;;;;;;;;;12838698;19;20014;-64
2022/12/10 17:29:38;;;;;;;16.33;9.35;;;;;;;;;;12782708;19;20055;-64
2022/12/10 17:33:56;;;;;;;14.85;8.07;;;;;;;;;;12837129;19;20309;-64
2022/12/10 17:38:22;;;;;;;14.80;7.77;;;;;;;;;;12727123;19;20031;-64
2022/12/10 17:43:05;;;;;;;15.80;9.05;;;;;;;;;;12834527;19;20584;-64
2022/12/10 17:47:27;;;;;;;18.33;8.90;;;;;;;;;;12817895;19;20086;-64
2022/12/10 17:51:45;;;;;;;22.92;11.15;;;;;;;;;;12841876;19;20083;-63
2022/12/10 17:56:02;;;;;;;24.40;10.33;;;;;;;;;;12837641;19;20024;-64
2022/12/10 18:00:21;;;;;;;28.83;10.68;;;;;;;;;;12839126;19;20438;-64
2022/12/10 18:04:40;;;;;;;19.90;10.70;;;;;;;;;;12838619;19;20438;-64
2022/12/10 18:09:01;;;;;;;41.50;23.63;;;;;;;;;;12822742;19;20295;-63
2022/12/10 18:13:30;;;;;;;20.75;12.95;;;;;;;;;;12838378;19;20364;-66
2022/12/10 18:17:47;;;;;;;32.05;11.73;;;;;;;;;;12839196;19;20290;-64
2022/12/10 18:22:08;;;;;;;41.28;13.25;;;;;;;;;;12839940;19;20450;-63
2022/12/10 18:26:25;;;;;;;33.22;12.27;;;;;;;;;;12838703;19;20465;-63
2022/12/10 18:30:43;;;;;;;65.47;18.17;;;;;;;;;;12763267;19;20461;-63
2022/12/10 18:35:00;;;;;;;49.88;16.67;;;;;;;;;;12838176;19;20366;-64
2022/12/10 18:39:23;;;;;;;33.00;10.25;;;;;;;;;;12839000;19;20495;-64
2022/12/10 18:43:40;;;;;;;34.88;13.95;;;;;;;;;;12840392;19;20308;-65
2022/12/10 18:48:00;;;;;;;22.98;9.93;;;;;;;;;;12839242;19;20434;-64
2022/12/10 18:52:19;;;;;;;16.95;10.93;;;;;;;;;;12836197;19;20327;-64
2022/12/10 18:56:40;;;;;;;15.85;9.23;;;;;;;;;;12838834;19;20434;-64
2022/12/10 19:00:58;;;;;;;38.10;16.13;;;;;;;;;;12835809;19;20489;-63
2022/12/10 19:05:17;;;;;;;26.93;13.03;;;;;;;;;;12837049;19;20469;-63
2022/12/10 19:09:37;;;;;;;23.25;9.73;;;;;;;;;;12836914;19;20232;-66
2022/12/10 19:13:54;;;;;;;17.13;8.45;;;;;;;;;;12838966;19;20433;-65
2022/12/10 19:18:14;;;;;;;20.10;9.98;;;;;;;;;;12835691;19;20303;-63
2022/12/10 19:22:34;;;;;;;18.02;10.00;;;;;;;;;;12762114;19;20450;-64
2022/12/10 19:26:51;;;;;;;15.70;8.65;;;;;;;;;;12837213;19;20335;-63
2022/12/10 19:31:16;;;;;;;26.48;13.82;;;;;;;;;;12834114;19;20006;-64
2022/12/10 19:35:33;;;;;;;46.90;21.13;;;;;;;;;;12835586;19;20418;-63
2022/12/10 19:39:51;;;;;;;21.95;9.80;;;;;;;;;;12781187;19;20523;-62
2022/12/10 19:44:14;;;;;;;13.02;7.15;;;;;;;;;;12832936;19;20011;-64
2022/12/10 19:48:31;;;;;;;13.05;7.18;;;;;;;;;;12835558;19;20014;-63
2022/12/10 19:52:51;;;;;;;35.47;14.77;;;;;;;;;;12834118;19;20525;-63
2022/12/10 19:57:11;;;;;;;16.20;8.60;;;;;;;;;;12757723;19;20426;-62
2022/12/10 20:01:29;;;;;;;12.93;6.60;;;;;;;;;;12273890;19;10000547;-64
2022/12/10 20:05:49;;;;;;;19.92;9.43;;;;;;;;;;12834933;19;20011;-62
2022/12/10 20:10:18;;;;;;;46.50;18.15;;;;;;;;;;12829399;19;20473;-64
2022/12/10 20:14:40;;;;;;;18.27;9.40;;;;;;;;;;12778178;19;20432;-63
2022/12/10 20:19:03;;;;;;;18.48;8.27;;;;;;;;;;12779042;19;20593;-63
2022/12/10 20:23:21;;;;;;;29.25;11.88;;;;;;;;;;12766530;19;20328;-63
2022/12/10 20:27:44;;;;;;;39.13;11.88;;;;;;;;;;12846185;19;20280;-63
2022/12/10 20:32:03;;;;;;;32.00;10.95;;;;;;;;;;12823229;19;20292;-63
2022/12/10 20:36:23;;;;;;;34.83;11.90;;;;;;;;;;12843608;19;20017;-64
2022/12/10 20:40:44;;;;;;;29.38;12.70;;;;;;;;;;12823040;19;20368;-63
2022/12/10 20:45:02;;;;;;;29.10;16.48;;;;;;;;;;12845965;19;20042;-63
2022/12/10 20:49:31;;;;;;;58.58;19.63;;;;;;;;;;12845810;19;20417;-64
2022/12/10 20:53:48;;;;;;;33.85;11.68;;;;;;;;;;12842689;19;20017;-64
2022/12/10 20:58:11;;;;;;;43.22;13.25;;;;;;;;;;12820813;19;20311;-63
2022/12/10 21:02:31;;;;;;;35.72;11.25;;;;;;;;;;12844245;19;20029;-63
2022/12/10 21:06:48;;;;;;;26.90;8.88;;;;;;;;;;12844227;19;20010;-63
2022/12/10 21:11:06;;;;;;;29.33;10.68;;;;;;;;;;12843840;19;20029;-65
2022/12/10 21:15:23;;;;;;;12.57;5.47;;;;;;;;;;12843063;19;20430;-64
2022/12/10 21:19:42;;;;;;;21.58;8.23;;;;;;;;;;12843485;19;20466;-63
2022/12/10 21:23:59;;;;;;;35.55;11.00;;;;;;;;;;12684787;19;20049;-64
2022/12/10 21:28:19;;;;;;;37.85;13.40;;;;;;;;;;12841734;19;20067;-64
2022/12/10 21:32:37;;;;;;;22.27;8.88;;;;;;;;;;12842673;19;20425;-63
2022/12/10 21:36:54;;;;;;;26.90;10.27;;;;;;;;;;12843112;19;20340;-63
2022/12/10 21:46:08;;;;;;;21.10;9.60;;;;;;;;;;12841879;19;20025;-64
2022/12/10 21:50:29;;;;;;;20.88;8.73;;;;;;;;;;12844637;19;20478;-64
2022/12/10 21:54:46;;;;;;;22.73;9.25;;;;;;;;;;12843231;19;20518;-64
2022/12/10 21:59:04;;;;;;;21.58;9.48;;;;;;;;;;12840700;19;20011;-64
2022/12/10 22:03:21;;;;;;;17.25;8.10;;;;;;;;;;12842909;19;20322;-64
2022/12/10 22:07:40;;;;;;;31.80;11.50;;;;;;;;;;12840827;19;20437;-63
2022/12/10 22:11:57;;;;;;;23.38;9.75;;;;;;;;;;12842231;19;20336;-64
2022/12/10 22:16:15;;;;;;;;;;;;;;;;;;12840105;19;20458;-63
2022/12/10 22:20:37;;;;;;;14.63;7.05;;;;;;;;;;12842531;19;20218;-65
2022/12/10 22:24:55;;;;;;;17.33;7.47;;;;;;;;;;12839782;19;20778;-63
2022/12/10 22:29:12;;;;;;;15.85;7.68;;;;;;;;;;12839378;19;20431;-63
2022/12/10 22:33:29;;;;;;;14.23;7.35;;;;;;;;;;12839661;19;20363;-63
2022/12/10 22:37:50;;;;;;;14.43;7.40;;;;;;;;;;12840437;19;20478;-63
2022/12/10 22:42:08;;;;;;;15.05;7.05;;;;;;;;;;12836769;19;20077;-63
2022/12/10 22:46:25;;;;;;;13.00;7.47;;;;;;;;;;12838555;19;20418;-63
2022/12/10 22:50:42;;;;;;;17.13;6.45;;;;;;;;;;12839859;19;20022;-64
2022/12/10 22:54:58;;;;;;;13.80;7.65;;;;;;;;;;12837607;19;20467;-62
2022/12/10 22:59:16;;;;;;;15.82;7.70;;;;;;;;;;12837554;19;20015;-62
2022/12/10 23:03:33;;;;;;;19.10;8.77;;;;;;;;;;12837677;19;20010;-63
2022/12/10 23:07:50;;;;;;;24.70;9.77;;;;;;;;;;12838847;19;20497;-62
2022/12/10 23:16:43;;;;;;;13.73;7.15;;;;;;;;;;12836238;19;20010;-63
2022/12/10 23:21:01;;;;;;;17.70;7.25;;;;;;;;;;12836853;19;20599;-63
2022/12/10 23:25:18;;;;;;;16.40;8.50;;;;;;;;;;12838863;19;20446;-63
2022/12/10 23:29:35;;;;;;;17.23;7.45;;;;;;;;;;12836535;19;20036;-63
2022/12/10 23:33:52;;;;;;;17.55;8.07;;;;;;;;;;12837535;19;20006;-62
2022/12/10 23:38:09;;;;;;;16.33;7.88;;;;;;;;;;12835951;19;20469;-63
2022/12/10 23:42:29;;;;;;;16.98;7.10;;;;;;;;;;12835422;19;20002;-62
2022/12/10 23:46:47;;;;;;;12.15;6.60;;;;;;;;;;12836380;19;20385;-62
2022/12/10 23:51:05;;;;;;;11.63;4.65;;;;;;;;;;12834748;19;20332;-63
2022/12/10 23:55:22;;;;;;;9.35;4.72;;;;;;;;;;12844004;19;20498;-62
2022/12/10 23:59:39;;;;;;;8.65;4.22;;;;;;;;;;12848271;19;20457;-64
